Terminal Aerodrome Forecast
Issued by NWS Charleston, SC

Home | Current Version | Previous Version | Text Only | Print | Product List | Glossary On
Versions: 1 2 3 4 5 6 7 8 9 10 11 12 13 14 15 16 17 18 19 20 21 22 23 24 25 26 27 28 29 30 31 32 33 34 35 36 37 38 39 40
000
FTUS42 KCHS 160500
TAFCHS
TAF
KCHS 160532Z 1606/1706 VRB03KT 4SM MIFG BKN005
      TEMPO 1606/1608 1 1/2SM MIFG OVC002
     FM160800 VRB03KT 2SM BR SCT003 OVC006
      TEMPO 1608/1611 1/2SM FG OVC001
     FM161300 32005KT P6SM SCT015 BKN040
     FM161800 23006KT P6SM SCT030 BKN050=

USA.gov is the U.S. government's official web portal to all federal, state and local government web resources and services.